createdAt,value
2023-02-19T00:02:11.955Z,9.10
2023-02-19T00:04:38.831Z,9.80
2023-02-19T00:07:05.442Z,9.10
2023-02-19T00:09:32.144Z,9.00
2023-02-19T00:11:58.810Z,8.40
2023-02-19T00:14:25.446Z,8.70
2023-02-19T00:16:52.095Z,8.40
2023-02-19T00:19:19.625Z,8.80
2023-02-19T00:21:46.565Z,8.70
2023-02-19T00:24:13.875Z,8.50
2023-02-19T00:26:41.158Z,8.40
2023-02-19T00:29:07.804Z,8.10
2023-02-19T00:31:35.477Z,8.40
2023-02-19T00:34:04.202Z,10.00
2023-02-19T00:36:31.496Z,8.70
2023-02-19T00:38:58.350Z,8.70
2023-02-19T00:41:25.018Z,8.60
2023-02-19T00:43:52.933Z,8.80
2023-02-19T00:46:21.822Z,8.60
2023-02-19T00:48:48.540Z,8.70
2023-02-19T00:51:15.640Z,9.10
2023-02-19T00:53:42.355Z,9.20
2023-02-19T00:56:09.112Z,8.10
2023-02-19T00:58:35.793Z,8.50
2023-02-19T01:01:02.516Z,8.30
2023-02-19T01:03:29.173Z,8.40
2023-02-19T01:05:55.840Z,8.40
2023-02-19T01:08:22.745Z,8.50
2023-02-19T01:10:49.383Z,8.40
2023-02-19T01:15:43.383Z,8.60
2023-02-19T01:18:10.420Z,8.60
2023-02-19T01:20:40.842Z,8.60
2023-02-19T01:23:07.875Z,8.60
2023-02-19T01:25:34.634Z,8.50
2023-02-19T01:28:01.263Z,8.50
2023-02-19T01:30:28.026Z,8.50
2023-02-19T01:32:54.687Z,8.50
2023-02-19T01:35:21.298Z,8.50
2023-02-19T01:37:47.949Z,8.50
2023-02-19T01:40:14.583Z,8.40
2023-02-19T01:42:44.362Z,8.50
2023-02-19T01:45:18.679Z,8.50
2023-02-19T01:47:46.206Z,8.50
2023-02-19T01:50:12.797Z,9.00
2023-02-19T01:52:39.538Z,8.60
2023-02-19T01:55:07.462Z,7.90
2023-02-19T01:57:35.995Z,8.50
2023-02-19T02:00:05.809Z,8.50
2023-02-19T02:02:32.590Z,8.10
2023-02-19T02:05:00.258Z,8.50
2023-02-19T02:07:45.675Z,8.50
2023-02-19T02:10:21.156Z,8.50
2023-02-19T02:12:48.501Z,8.10
2023-02-19T02:15:16.345Z,8.40
2023-02-19T02:17:43.020Z,8.40
2023-02-19T02:20:22.658Z,8.30
2023-02-19T02:23:03.690Z,9.00
2023-02-19T02:25:30.280Z,8.30
2023-02-19T02:28:06.064Z,8.30
2023-02-19T02:30:39.399Z,8.30
2023-02-19T02:33:12.256Z,8.40
2023-02-19T02:35:44.222Z,8.40
2023-02-19T02:38:12.361Z,8.40
2023-02-19T02:40:42.210Z,8.40
2023-02-19T02:43:08.969Z,8.50
2023-02-19T02:45:35.575Z,8.50
2023-02-19T02:48:15.089Z,8.50
2023-02-19T02:50:44.870Z,8.50
2023-02-19T02:53:32.236Z,8.60
2023-02-19T02:56:00.439Z,8.60
2023-02-19T02:58:28.009Z,8.70
2023-02-19T03:01:15.472Z,8.70
2023-02-19T03:03:43.332Z,8.70
2023-02-19T03:06:10.964Z,8.70
2023-02-19T03:08:37.486Z,8.70
2023-02-19T03:11:23.894Z,8.70
2023-02-19T03:14:16.685Z,8.70
2023-02-19T03:17:02.919Z,8.70
2023-02-19T03:19:30.199Z,8.70
2023-02-19T03:21:56.788Z,8.80
2023-02-19T03:24:45.697Z,8.80
2023-02-19T03:27:14.088Z,8.80
2023-02-19T03:29:41.204Z,8.80
2023-02-19T03:32:17.176Z,8.70
2023-02-19T03:34:51.857Z,8.70
2023-02-19T03:37:25.349Z,8.70
2023-02-19T03:39:53.237Z,8.60
2023-02-19T03:42:32.900Z,8.60
2023-02-19T03:45:11.690Z,8.70
2023-02-19T03:47:45.469Z,8.70
2023-02-19T03:50:21.602Z,8.70
2023-02-19T03:53:11.754Z,8.60
2023-02-19T03:55:44.553Z,8.60
2023-02-19T03:58:17.169Z,8.60
2023-02-19T04:00:53.345Z,8.60
2023-02-19T04:03:33.689Z,8.70
2023-02-19T04:06:01.915Z,8.70
2023-02-19T04:08:29.855Z,9.30
2023-02-19T04:10:58.272Z,8.70
2023-02-19T04:13:27.296Z,9.30
2023-02-19T04:15:55.764Z,8.70
2023-02-19T04:18:25.090Z,8.70
2023-02-19T04:20:52.351Z,8.80
2023-02-19T04:23:23.001Z,8.60
2023-02-19T04:25:50.867Z,8.80
2023-02-19T04:28:18.152Z,8.90
2023-02-19T04:30:44.876Z,8.90
2023-02-19T04:33:11.447Z,8.70
2023-02-19T04:35:38.054Z,8.80
2023-02-19T04:38:04.619Z,8.80
2023-02-19T04:40:31.259Z,8.80
2023-02-19T04:42:57.882Z,8.70
2023-02-19T04:45:24.529Z,9.20
2023-02-19T04:47:51.172Z,8.80
2023-02-19T04:50:17.804Z,8.80
2023-02-19T04:52:44.367Z,8.80
2023-02-19T04:55:11.053Z,8.80
2023-02-19T04:57:37.678Z,8.80
2023-02-19T05:00:04.776Z,8.70
2023-02-19T05:02:31.409Z,8.70
2023-02-19T05:04:57.991Z,8.70
2023-02-19T05:07:24.554Z,8.70
2023-02-19T05:09:51.107Z,8.70
2023-02-19T05:12:17.737Z,8.70
2023-02-19T05:14:44.377Z,8.70
2023-02-19T05:17:10.959Z,8.60
2023-02-19T05:19:37.552Z,8.60
2023-02-19T05:22:04.204Z,8.60
2023-02-19T05:24:31.539Z,8.60
2023-02-19T05:26:58.165Z,8.70
2023-02-19T05:29:24.809Z,8.60
2023-02-19T05:31:51.538Z,8.70
2023-02-19T05:34:18.206Z,8.60
2023-02-19T05:36:45.178Z,8.40
2023-02-19T05:39:12.220Z,8.30
2023-02-19T05:41:39.363Z,8.30
2023-02-19T05:44:06.001Z,8.10
2023-02-19T05:46:32.798Z,8.10
2023-02-19T05:48:59.499Z,8.30
2023-02-19T05:51:26.672Z,8.70
2023-02-19T05:53:53.350Z,8.40
2023-02-19T05:56:26.061Z,8.30
2023-02-19T05:58:53.240Z,8.40
2023-02-19T06:01:21.264Z,8.40
2023-02-19T06:03:47.941Z,8.40
2023-02-19T06:06:15.269Z,8.40
2023-02-19T06:08:41.872Z,8.50
2023-02-19T06:11:08.711Z,8.50
2023-02-19T06:13:35.449Z,8.60
2023-02-19T06:16:05.945Z,8.60
2023-02-19T06:18:32.604Z,8.70
2023-02-19T06:21:03.087Z,8.70
2023-02-19T06:23:29.793Z,8.80
2023-02-19T06:26:05.131Z,8.70
2023-02-19T06:28:31.752Z,8.80
2023-02-19T06:30:58.800Z,8.80
2023-02-19T06:33:26.682Z,8.70
2023-02-19T06:35:53.423Z,8.70
2023-02-19T06:38:23.140Z,8.70
2023-02-19T06:40:49.748Z,8.70
2023-02-19T06:43:16.374Z,8.70
2023-02-19T06:45:42.934Z,8.70
2023-02-19T06:48:09.534Z,8.70
2023-02-19T06:50:36.137Z,8.60
2023-02-19T06:53:02.781Z,8.70
2023-02-19T06:55:29.416Z,8.70
2023-02-19T06:57:56.037Z,8.70
2023-02-19T07:00:22.717Z,8.50
2023-02-19T07:02:49.923Z,8.60
2023-02-19T07:05:16.544Z,8.60
2023-02-19T07:07:45.178Z,8.70
2023-02-19T07:10:11.765Z,8.50
2023-02-19T07:12:38.386Z,8.70
2023-02-19T07:15:05.075Z,8.60
2023-02-19T07:17:31.688Z,8.70
2023-02-19T07:19:58.273Z,8.70
2023-02-19T07:22:24.874Z,8.70
2023-02-19T07:24:51.500Z,8.60
2023-02-19T07:27:18.099Z,8.70
2023-02-19T07:29:44.706Z,8.80
2023-02-19T07:32:11.350Z,8.80
2023-02-19T07:34:38.054Z,8.90
2023-02-19T07:37:04.695Z,8.90
2023-02-19T07:39:31.282Z,8.80
2023-02-19T07:41:57.925Z,8.80
2023-02-19T07:44:24.531Z,8.80
2023-02-19T07:46:51.136Z,8.80
2023-02-19T07:49:17.791Z,9.20
2023-02-19T07:51:44.952Z,8.60
2023-02-19T07:54:11.672Z,8.70
2023-02-19T07:56:38.214Z,8.80
2023-02-19T07:59:04.780Z,8.80
2023-02-19T08:01:50.200Z,8.70
2023-02-19T08:04:16.741Z,8.70
2023-02-19T08:06:43.388Z,8.80
2023-02-19T08:09:10.000Z,8.80
2023-02-19T08:11:55.538Z,8.80
2023-02-19T08:14:26.021Z,8.90
2023-02-19T08:16:52.714Z,9.10
2023-02-19T08:19:19.676Z,9.10
2023-02-19T08:21:46.331Z,9.50
2023-02-19T08:24:12.950Z,9.10
2023-02-19T08:26:39.534Z,9.70
2023-02-19T08:29:06.506Z,9.20
2023-02-19T08:31:33.709Z,9.70
2023-02-19T08:34:00.334Z,9.10
2023-02-19T08:36:27.415Z,9.10
2023-02-19T08:38:54.131Z,9.10
2023-02-19T08:41:20.808Z,9.20
2023-02-19T08:43:47.428Z,9.20
2023-02-19T08:46:14.153Z,9.30
2023-02-19T08:48:41.104Z,9.50
2023-02-19T08:51:09.612Z,9.50
2023-02-19T08:53:37.238Z,9.50
2023-02-19T08:56:14.088Z,9.60
2023-02-19T08:58:40.742Z,9.50
2023-02-19T09:01:16.527Z,9.40
2023-02-19T09:03:43.232Z,9.40
2023-02-19T09:06:17.110Z,9.30
2023-02-19T09:08:44.017Z,9.30
2023-02-19T09:11:10.926Z,9.40
2023-02-19T09:13:37.645Z,9.30
2023-02-19T09:16:04.924Z,9.30
2023-02-19T09:18:31.719Z,9.40
2023-02-19T09:21:02.025Z,9.40
2023-02-19T09:23:28.724Z,9.30
2023-02-19T09:26:00.107Z,9.30
2023-02-19T09:28:27.140Z,9.20
2023-02-19T09:30:53.816Z,9.70
2023-02-19T09:33:20.446Z,9.10
2023-02-19T09:35:47.059Z,9.10
2023-02-19T09:38:13.729Z,9.10
2023-02-19T09:40:40.415Z,9.10
2023-02-19T09:43:13.434Z,9.00
2023-02-19T09:45:40.084Z,9.00
2023-02-19T09:48:06.875Z,8.90
2023-02-19T09:50:39.162Z,8.80
2023-02-19T09:53:10.341Z,8.80
2023-02-19T09:55:39.061Z,8.90
2023-02-19T09:58:18.894Z,8.90
2023-02-19T10:00:48.063Z,9.10
2023-02-19T10:03:20.687Z,9.20
2023-02-19T10:05:47.793Z,9.10
2023-02-19T10:08:18.094Z,9.00
2023-02-19T10:10:45.066Z,9.00
2023-02-19T10:13:19.198Z,9.00
2023-02-19T10:15:51.136Z,9.20
2023-02-19T10:18:19.183Z,9.20
2023-02-19T10:20:46.604Z,9.20
2023-02-19T10:23:14.486Z,9.00
2023-02-19T10:25:45.001Z,8.90
2023-02-19T10:28:14.735Z,9.00
2023-02-19T10:30:41.360Z,9.00
2023-02-19T10:33:12.719Z,9.20
2023-02-19T10:35:51.750Z,9.20
2023-02-19T10:38:20.316Z,9.20
2023-02-19T10:40:47.160Z,9.30
2023-02-19T10:43:22.390Z,9.50
2023-02-19T10:45:50.412Z,9.90
2023-02-19T10:48:27.126Z,10.50
2023-02-19T10:50:58.122Z,10.20
2023-02-19T10:53:35.761Z,10.30
2023-02-19T10:56:33.690Z,10.80
2023-02-19T10:59:18.882Z,10.80
2023-02-19T11:01:58.171Z,10.60
2023-02-19T11:04:26.394Z,10.70
2023-02-19T11:06:53.251Z,10.30
2023-02-19T11:09:28.065Z,10.90
2023-02-19T11:11:56.008Z,10.10
2023-02-19T11:14:24.204Z,10.00
2023-02-19T11:16:58.371Z,10.10
2023-02-19T11:19:40.423Z,10.00
2023-02-19T11:22:25.940Z,10.00
2023-02-19T11:24:56.703Z,9.90
2023-02-19T11:27:24.981Z,9.80
2023-02-19T11:29:53.536Z,9.90
2023-02-19T11:32:20.328Z,10.60
2023-02-19T11:34:50.679Z,10.20
2023-02-19T11:37:18.539Z,10.00
2023-02-19T11:39:46.807Z,9.80
2023-02-19T11:42:16.609Z,9.70
2023-02-19T11:45:02.018Z,9.80
2023-02-19T11:47:48.676Z,9.90
2023-02-19T11:50:21.732Z,9.70
2023-02-19T11:53:03.797Z,9.50
2023-02-19T11:55:54.758Z,9.30
2023-02-19T11:58:40.308Z,9.20
2023-02-19T12:01:06.981Z,9.10
2023-02-19T12:03:52.628Z,9.10
2023-02-19T12:06:23.200Z,8.90
2023-02-19T12:08:52.948Z,9.50
2023-02-19T12:11:34.936Z,8.80
2023-02-19T12:14:08.081Z,8.70
2023-02-19T12:16:34.796Z,8.70
2023-02-19T12:21:12.223Z,9.40
2023-02-19T12:22:32.209Z,8.90
2023-02-19T12:25:29.793Z,8.80
2023-02-19T12:27:59.496Z,9.00
2023-02-19T12:30:29.456Z,9.40
2023-02-19T12:33:08.207Z,9.60
2023-02-19T12:35:56.298Z,9.80
2023-02-19T12:38:29.049Z,9.80
2023-02-19T12:40:58.768Z,9.90
2023-02-19T12:43:25.459Z,9.90
2023-02-19T12:46:00.337Z,10.60
2023-02-19T12:48:27.007Z,10.40
2023-02-19T12:51:05.549Z,10.10
2023-02-19T12:53:32.218Z,9.90
2023-02-19T12:56:06.859Z,10.90
2023-02-19T12:58:46.057Z,11.00
2023-02-19T13:01:16.968Z,10.50
2023-02-19T13:04:02.752Z,11.10
2023-02-19T13:06:29.418Z,11.30
2023-02-19T13:09:14.965Z,11.20
2023-02-19T13:11:52.407Z,10.70
2023-02-19T13:14:30.102Z,10.80
2023-02-19T13:17:29.259Z,10.70
2023-02-19T13:19:58.632Z,10.40
2023-02-19T13:22:50.158Z,10.10
2023-02-19T13:25:17.982Z,10.20
2023-02-19T13:27:44.617Z,10.10
2023-02-19T13:30:30.021Z,10.00
2023-02-19T13:32:59.924Z,9.90
2023-02-19T13:35:45.300Z,10.00
2023-02-19T13:38:13.133Z,9.90
2023-02-19T13:40:42.333Z,9.80
2023-02-19T13:43:23.373Z,9.80
2023-02-19T13:45:54.142Z,10.60
2023-02-19T13:48:23.882Z,10.20
2023-02-19T13:50:51.278Z,9.90
2023-02-19T13:53:38.205Z,9.90
2023-02-19T13:56:24.921Z,10.10
2023-02-19T13:58:57.196Z,10.10
2023-02-19T14:01:44.144Z,10.10
2023-02-19T14:04:19.726Z,9.90
2023-02-19T14:07:04.921Z,9.90
2023-02-19T14:09:34.517Z,9.90
2023-02-19T14:12:02.679Z,9.90
2023-02-19T14:14:36.544Z,10.00
2023-02-19T14:17:09.308Z,10.00
2023-02-19T14:19:42.102Z,10.00
2023-02-19T14:22:27.462Z,10.00
2023-02-19T14:24:54.632Z,9.90
2023-02-19T14:27:21.395Z,9.90
2023-02-19T14:29:48.516Z,10.20
2023-02-19T14:32:19.136Z,10.90
2023-02-19T14:34:46.032Z,10.60
2023-02-19T14:37:16.966Z,11.10
2023-02-19T14:39:44.507Z,11.10
2023-02-19T14:42:19.696Z,14.30
2023-02-19T14:44:52.428Z,16.90
2023-02-19T14:49:51.558Z,16.30
2023-02-19T14:52:21.319Z,16.60
2023-02-19T14:54:54.569Z,15.60
2023-02-19T14:57:29.648Z,15.00
2023-02-19T15:00:01.057Z,14.40
2023-02-19T15:02:28.774Z,15.40
2023-02-19T15:04:55.786Z,16.50
2023-02-19T15:07:24.467Z,16.80
2023-02-19T15:09:53.300Z,16.00
2023-02-19T15:12:21.707Z,16.20
2023-02-19T15:14:49.700Z,13.90
2023-02-19T15:17:19.903Z,13.50
2023-02-19T15:19:46.582Z,12.80
2023-02-19T15:22:17.512Z,11.60
2023-02-19T15:24:46.523Z,12.90
2023-02-19T15:27:20.052Z,12.20
2023-02-19T15:29:47.955Z,11.50
2023-02-19T15:32:19.218Z,11.30
2023-02-19T15:34:55.492Z,12.00
2023-02-19T15:37:22.626Z,10.90
2023-02-19T15:39:50.642Z,11.50
2023-02-19T15:42:22.427Z,9.70
2023-02-19T15:44:54.101Z,10.50
2023-02-19T15:47:29.691Z,10.40
2023-02-19T15:49:59.655Z,10.30
2023-02-19T15:52:35.766Z,10.20
2023-02-19T15:55:02.359Z,10.20
2023-02-19T15:57:32.158Z,11.00
2023-02-19T16:00:05.267Z,10.00
2023-02-19T16:02:33.271Z,10.60
2023-02-19T16:05:02.350Z,10.80
2023-02-19T16:07:31.878Z,10.70
